Choppington, United Kingdom
Current Conditions -  °F | °C
As of 9:20 PM on Thursday 20 Nov 2014 (Local Time) from EGNT Reporting Station
Moderate Fog Moderate Fog  
Wind Chill:   Ceiling: Unl
Heat Index:   Visibility: 0.25mi
Dew Point:   Wind: 0mph
Humidity: 100%   Direction: NA
Pressure: 30.27"   Gusts: NA
Location:  55.16°N, 1.6°W
Report Text: EGNT 202120Z 00000KT 0400 R25/0600 FG FEW008 04/04 Q1025
Loading
Personal Weather Stations






























Interactive Weather Map New forecast layout! Learn more

10-Day Weather Forecast

Advertisements
Track Severe Weather on mobile